Koumac Nlle-Caledonie, New Caledonia
Current Conditions -  °F | °C
As of 7:30 PM on Saturday 20 Dec 2014 (Local Time) from NWWW Reporting Station
Overcast Overcast  
Wind Chill: 81°   Ceiling: 5200
Heat Index: 85°   Visibility: 6mi
Dew Point: 73°   Wind: 7mph
Humidity: 79%   Direction: 140°SE
Pressure: 29.83"   Gusts: NA
Location:  20.57°S, 164.28°E
Report Text: NWWW 200830Z AUTO 14006KT 9999 OVC052 27/23 Q1010
Loading
Personal Weather Stations






























Interactive Weather Map New forecast layout! Learn more

10-Day Weather Forecast

Advertisements
Track Severe Weather on mobile